Time;durP1;ratioP1;P1;durP2;ratioP2;P2;SDS_P1;SDS_P2;PMS_P1;PMS_P2;Temp;Humidity;BMP_temperature;BMP_pressure;BME280_temperature;BME280_humidity;BME280_pressure;Samples;Min_cycle;Max_cycle;Signal;HPM_P1;HPM_P2
2023/09/19 00:02:17;;;;;;;8.20;3.55;;;;;;;;;;5030161;28;20049;-70
2023/09/19 00:04:43;;;;;;;9.95;4.00;;;;;;;;;;5030830;28;20037;-70
2023/09/19 00:07:09;;;;;;;7.35;3.50;;;;;;;;;;5028179;28;20048;-70
2023/09/19 00:09:37;;;;;;;9.70;3.60;;;;;;;;;;5031124;28;20143;-69
2023/09/19 00:12:03;;;;;;;7.68;3.40;;;;;;;;;;5032527;28;20021;-70
2023/09/19 00:14:29;;;;;;;7.30;2.92;;;;;;;;;;5034254;28;20028;-70
2023/09/19 00:16:54;;;;;;;6.72;3.03;;;;;;;;;;5034567;28;20026;-69
2023/09/19 00:19:20;;;;;;;8.30;3.00;;;;;;;;;;5034417;28;20041;-70
2023/09/19 00:21:46;;;;;;;10.75;3.38;;;;;;;;;;5034444;28;20106;-71
2023/09/19 00:24:12;;;;;;;8.02;2.70;;;;;;;;;;5032824;28;20029;-68
2023/09/19 00:26:38;;;;;;;8.65;3.30;;;;;;;;;;5034194;28;20037;-70
2023/09/19 00:29:03;;;;;;;7.63;2.67;;;;;;;;;;5034461;28;20095;-69
2023/09/19 00:31:29;;;;;;;8.10;3.10;;;;;;;;;;5034382;28;20025;-69
2023/09/19 00:33:56;;;;;;;7.35;3.33;;;;;;;;;;5033529;28;20541;-68
2023/09/19 00:36:23;;;;;;;8.73;2.97;;;;;;;;;;5034212;28;20040;-69
2023/09/19 00:38:48;;;;;;;11.80;3.25;;;;;;;;;;5033623;28;20097;-70
2023/09/19 00:41:13;;;;;;;10.20;3.17;;;;;;;;;;5033608;28;20134;-70
2023/09/19 00:43:40;;;;;;;10.73;3.30;;;;;;;;;;5033092;28;20029;-69
2023/09/19 00:46:06;;;;;;;11.15;3.42;;;;;;;;;;5033760;28;20021;-68
2023/09/19 00:48:31;;;;;;;8.40;3.13;;;;;;;;;;5033454;28;20025;-70
2023/09/19 00:51:03;;;;;;;9.80;2.90;;;;;;;;;;5032780;28;20036;-69
2023/09/19 00:53:30;;;;;;;9.90;2.80;;;;;;;;;;5033749;28;20432;-70
2023/09/19 00:55:56;;;;;;;9.38;2.83;;;;;;;;;;5032524;28;20033;-69
2023/09/19 00:58:21;;;;;;;9.45;3.10;;;;;;;;;;5033705;28;20036;-69
2023/09/19 01:03:49;;;;;;;10.00;2.72;;;;;;;;;;5038307;23;20432;-61
2023/09/19 01:06:15;;;;;;;9.18;2.88;;;;;;;;;;5014460;28;20017;-61
2023/09/19 01:08:40;;;;;;;7.68;2.50;;;;;;;;;;5014336;28;20018;-61
2023/09/19 01:11:05;;;;;;;7.45;2.20;;;;;;;;;;5014099;28;20042;-60
2023/09/19 01:13:43;;;;;;;7.93;2.00;;;;;;;;;;5013373;28;20018;-61
2023/09/19 01:16:29;;;;;;;4.63;1.50;;;;;;;;;;5013300;28;20586;-61
2023/09/19 01:19:16;;;;;;;4.13;1.52;;;;;;;;;;5010882;28;20029;-59
2023/09/19 01:21:54;;;;;;;3.35;1.35;;;;;;;;;;5011944;28;20052;-59
2023/09/19 01:24:36;;;;;;;4.32;1.15;;;;;;;;;;5014061;28;20495;-59
2023/09/19 01:27:04;;;;;;;3.22;1.30;;;;;;;;;;5012636;28;20017;-60
2023/09/19 01:29:38;;;;;;;3.97;1.15;;;;;;;;;;5012826;28;20425;-60
2023/09/19 01:32:04;;;;;;;3.53;1.25;;;;;;;;;;5013993;28;20010;-60
2023/09/19 01:34:48;;;;;;;5.47;1.40;;;;;;;;;;5013382;28;20022;-62
2023/09/19 01:37:14;;;;;;;4.43;1.40;;;;;;;;;;5011762;28;20025;-61
2023/09/19 01:39:40;;;;;;;3.90;1.00;;;;;;;;;;5011709;28;20420;-61
2023/09/19 01:42:10;;;;;;;5.32;1.35;;;;;;;;;;5013500;28;20449;-60
2023/09/19 01:44:51;;;;;;;3.15;1.00;;;;;;;;;;5013293;28;20101;-63
2023/09/19 01:47:26;;;;;;;4.38;1.15;;;;;;;;;;5013077;28;20018;-59
2023/09/19 01:50:05;;;;;;;5.20;1.10;;;;;;;;;;5008370;28;20482;-59
2023/09/19 01:52:36;;;;;;;6.57;1.30;;;;;;;;;;5012902;28;20037;-60
2023/09/19 01:55:06;;;;;;;7.60;1.20;;;;;;;;;;5009394;28;20022;-59
2023/09/19 01:57:37;;;;;;;3.55;1.05;;;;;;;;;;5013113;28;20092;-60
2023/09/19 02:00:06;;;;;;;7.00;1.30;;;;;;;;;;5013177;28;20022;-63
2023/09/19 02:02:33;;;;;;;4.50;1.05;;;;;;;;;;5012836;28;20021;-60
2023/09/19 02:04:58;;;;;;;5.03;1.40;;;;;;;;;;5012948;28;20087;-62
2023/09/19 02:07:23;;;;;;;5.90;1.40;;;;;;;;;;5012861;28;20050;-62
2023/09/19 02:09:49;;;;;;;9.32;1.98;;;;;;;;;;5012941;28;20038;-63
2023/09/19 02:12:15;;;;;;;4.45;1.42;;;;;;;;;;5012737;28;20017;-62
2023/09/19 02:14:40;;;;;;;6.28;1.70;;;;;;;;;;5008952;28;20382;-63
2023/09/19 02:17:11;;;;;;;8.20;1.58;;;;;;;;;;5012557;28;20018;-62
2023/09/19 02:19:38;;;;;;;5.50;1.57;;;;;;;;;;5013316;28;20539;-62
2023/09/19 02:22:07;;;;;;;5.78;1.50;;;;;;;;;;5012845;28;20075;-62
2023/09/19 02:24:32;;;;;;;8.15;1.52;;;;;;;;;;5012251;28;20394;-60
2023/09/19 02:26:59;;;;;;;7.03;1.70;;;;;;;;;;5012789;28;20014;-61
2023/09/19 02:29:24;;;;;;;8.50;1.92;;;;;;;;;;5011533;28;20026;-61
2023/09/19 02:31:50;;;;;;;7.65;1.95;;;;;;;;;;5013768;28;20105;-60
2023/09/19 02:34:16;;;;;;;10.73;2.08;;;;;;;;;;5013487;28;20461;-61
2023/09/19 02:36:44;;;;;;;8.35;2.17;;;;;;;;;;5007057;28;20422;-62
2023/09/19 02:39:10;;;;;;;10.02;2.30;;;;;;;;;;5013020;28;20036;-63
2023/09/19 02:41:36;;;;;;;8.68;2.60;;;;;;;;;;5013469;28;20014;-61
2023/09/19 02:44:01;;;;;;;6.97;1.80;;;;;;;;;;5013663;28;20076;-62
2023/09/19 02:46:27;;;;;;;8.32;2.22;;;;;;;;;;5013155;28;20032;-62
2023/09/19 02:48:53;;;;;;;7.15;2.10;;;;;;;;;;5013369;28;20018;-60
2023/09/19 02:51:18;;;;;;;11.02;2.70;;;;;;;;;;5012907;28;20040;-60
2023/09/19 02:53:44;;;;;;;9.13;2.60;;;;;;;;;;5013474;28;20075;-62
2023/09/19 02:56:11;;;;;;;10.07;2.58;;;;;;;;;;5011399;28;20028;-61
2023/09/19 02:58:37;;;;;;;13.35;2.67;;;;;;;;;;5012678;28;20453;-62
2023/09/19 03:01:11;;;;;;;19.70;3.45;;;;;;;;;;5013514;28;20056;-62
2023/09/19 03:03:39;;;;;;;9.65;2.20;;;;;;;;;;5013435;28;20065;-62
2023/09/19 03:06:05;;;;;;;8.18;1.90;;;;;;;;;;5013051;28;20022;-61
2023/09/19 03:08:31;;;;;;;12.75;2.70;;;;;;;;;;5012869;28;20056;-62
2023/09/19 03:10:56;;;;;;;8.70;2.28;;;;;;;;;;5013569;28;20077;-62
2023/09/19 03:13:21;;;;;;;10.02;2.30;;;;;;;;;;5013655;28;20029;-62
2023/09/19 03:15:47;;;;;;;12.32;2.28;;;;;;;;;;5013251;28;20075;-62
2023/09/19 03:18:13;;;;;;;8.05;2.35;;;;;;;;;;5013326;28;20018;-60
2023/09/19 03:20:38;;;;;;;9.48;2.03;;;;;;;;;;5012197;28;20493;-61
2023/09/19 03:23:06;;;;;;;8.70;2.38;;;;;;;;;;5012572;28;20029;-60
2023/09/19 03:25:31;;;;;;;8.57;2.45;;;;;;;;;;5012537;28;20022;-61
2023/09/19 03:27:57;;;;;;;8.23;2.08;;;;;;;;;;5012365;28;20029;-65
2023/09/19 03:30:23;;;;;;;9.10;2.20;;;;;;;;;;5012888;28;20026;-66
2023/09/19 03:32:49;;;;;;;10.65;2.25;;;;;;;;;;5011842;28;20199;-66
2023/09/19 03:35:15;;;;;;;11.02;2.65;;;;;;;;;;5012308;28;20512;-67
2023/09/19 03:37:41;;;;;;;9.00;2.17;;;;;;;;;;5012704;28;20049;-65
2023/09/19 03:40:07;;;;;;;8.13;1.90;;;;;;;;;;5013279;28;20465;-67
2023/09/19 03:42:32;;;;;;;8.15;2.05;;;;;;;;;;5012957;28;20076;-67
2023/09/19 03:44:59;;;;;;;8.45;2.03;;;;;;;;;;5018853;28;20437;-66
2023/09/19 03:47:24;;;;;;;8.48;2.45;;;;;;;;;;5015027;28;20104;-65
2023/09/19 03:49:50;;;;;;;11.23;3.00;;;;;;;;;;5016223;28;20113;-64
2023/09/19 03:52:15;;;;;;;11.45;2.88;;;;;;;;;;5015965;28;20478;-65
2023/09/19 03:54:41;;;;;;;15.00;3.30;;;;;;;;;;5016351;28;20057;-67
2023/09/19 03:57:06;;;;;;;12.07;3.08;;;;;;;;;;5016150;28;20014;-64
2023/09/19 03:59:32;;;;;;;11.18;2.67;;;;;;;;;;5016196;28;20087;-66
2023/09/19 04:01:58;;;;;;;11.32;2.70;;;;;;;;;;5016339;28;20022;-65
2023/09/19 04:04:24;;;;;;;18.13;3.03;;;;;;;;;;5015591;28;20074;-67
2023/09/19 04:06:50;;;;;;;13.90;3.60;;;;;;;;;;5015828;28;20028;-65
2023/09/19 04:09:15;;;;;;;15.23;3.28;;;;;;;;;;5016085;28;20116;-67
2023/09/19 04:11:40;;;;;;;11.90;3.03;;;;;;;;;;5016382;28;20022;-65
2023/09/19 04:14:06;;;;;;;9.48;2.42;;;;;;;;;;5016104;28;20022;-65
2023/09/19 04:16:31;;;;;;;8.57;2.17;;;;;;;;;;5015705;28;20022;-65
2023/09/19 04:18:56;;;;;;;9.02;2.80;;;;;;;;;;5015379;28;20022;-65
2023/09/19 04:21:21;;;;;;;12.65;2.63;;;;;;;;;;5015816;28;20033;-65
2023/09/19 04:23:47;;;;;;;11.43;3.00;;;;;;;;;;5015800;28;20026;-67
2023/09/19 04:26:12;;;;;;;13.07;3.08;;;;;;;;;;5015571;28;20466;-66
2023/09/19 04:28:38;;;;;;;8.88;2.20;;;;;;;;;;5015459;28;20030;-65
2023/09/19 04:31:03;;;;;;;11.65;2.13;;;;;;;;;;5015422;28;20064;-67
2023/09/19 04:33:28;;;;;;;12.32;2.40;;;;;;;;;;5015203;28;20033;-67
2023/09/19 04:35:54;;;;;;;10.07;2.47;;;;;;;;;;5015450;28;20097;-65
2023/09/19 04:38:20;;;;;;;8.57;2.08;;;;;;;;;;5014135;28;20065;-62
2023/09/19 04:40:45;;;;;;;9.20;2.42;;;;;;;;;;5014845;28;20037;-63
2023/09/19 04:43:11;;;;;;;7.03;2.33;;;;;;;;;;5014921;28;20030;-62
2023/09/19 04:45:38;;;;;;;8.50;1.45;;;;;;;;;;5015652;28;20108;-62
2023/09/19 04:48:03;;;;;;;6.80;2.20;;;;;;;;;;4996932;28;20030;-63
2023/09/19 04:50:29;;;;;;;9.85;2.53;;;;;;;;;;5014908;28;20088;-60
2023/09/19 04:52:54;;;;;;;9.85;2.45;;;;;;;;;;5014662;28;20469;-61
2023/09/19 04:55:20;;;;;;;9.27;2.50;;;;;;;;;;5015534;28;20026;-60
2023/09/19 04:57:49;;;;;;;9.75;2.75;;;;;;;;;;5014304;28;20076;-61
2023/09/19 05:00:17;;;;;;;12.68;3.20;;;;;;;;;;5015050;28;20034;-61
2023/09/19 05:02:42;;;;;;;12.93;3.28;;;;;;;;;;5015021;28;20051;-63
2023/09/19 05:05:08;;;;;;;13.52;3.33;;;;;;;;;;5014210;28;20817;-60
2023/09/19 05:07:34;;;;;;;12.98;3.55;;;;;;;;;;5015322;28;20025;-61
2023/09/19 05:09:59;;;;;;;12.02;3.85;;;;;;;;;;5015391;28;20050;-61
2023/09/19 05:12:25;;;;;;;10.88;3.25;;;;;;;;;;5015330;28;20092;-61
2023/09/19 05:14:51;;;;;;;13.45;3.72;;;;;;;;;;5014619;28;20028;-62
2023/09/19 05:17:16;;;;;;;12.43;3.47;;;;;;;;;;5004085;28;20030;-60
2023/09/19 05:19:42;;;;;;;13.77;3.38;;;;;;;;;;5013958;28;20026;-61
2023/09/19 05:22:07;;;;;;;17.50;3.22;;;;;;;;;;5008103;28;20621;-62
2023/09/19 05:24:32;;;;;;;12.20;3.85;;;;;;;;;;5014832;28;20107;-62
2023/09/19 05:26:58;;;;;;;10.27;3.22;;;;;;;;;;5015000;28;20041;-61
2023/09/19 05:29:23;;;;;;;12.13;3.53;;;;;;;;;;5014144;28;20022;-59
2023/09/19 05:31:49;;;;;;;13.73;2.78;;;;;;;;;;5014974;28;20053;-62
2023/09/19 05:34:15;;;;;;;15.82;2.97;;;;;;;;;;5014729;28;20018;-59
2023/09/19 05:36:40;;;;;;;13.13;3.30;;;;;;;;;;5015063;28;20046;-61
2023/09/19 05:39:09;;;;;;;10.13;2.42;;;;;;;;;;5014705;28;20026;-60
2023/09/19 05:41:36;;;;;;;13.52;2.53;;;;;;;;;;5014821;28;20022;-62
2023/09/19 05:44:06;;;;;;;15.60;3.15;;;;;;;;;;5015066;28;20029;-61
2023/09/19 05:46:32;;;;;;;13.05;2.50;;;;;;;;;;5013835;28;20033;-62
2023/09/19 05:48:57;;;;;;;10.68;2.50;;;;;;;;;;5014573;28;20022;-61
2023/09/19 05:51:23;;;;;;;11.63;2.28;;;;;;;;;;5014058;28;20072;-59
2023/09/19 05:53:48;;;;;;;12.63;2.35;;;;;;;;;;5014730;28;20320;-61
2023/09/19 05:56:14;;;;;;;13.63;2.65;;;;;;;;;;5014871;28;20433;-59
2023/09/19 05:58:42;;;;;;;12.13;2.63;;;;;;;;;;5014699;28;20026;-61
2023/09/19 06:01:09;;;;;;;7.72;1.90;;;;;;;;;;5014804;28;20501;-60
2023/09/19 06:03:35;;;;;;;8.50;2.20;;;;;;;;;;5014390;28;20410;-60
2023/09/19 06:06:00;;;;;;;12.10;1.80;;;;;;;;;;5014571;28;20022;-62
2023/09/19 06:08:26;;;;;;;10.48;2.60;;;;;;;;;;5013879;28;20409;-61
2023/09/19 06:10:52;;;;;;;12.50;2.40;;;;;;;;;;5013617;28;20061;-59
2023/09/19 06:13:18;;;;;;;14.82;2.63;;;;;;;;;;5014264;28;20022;-61
2023/09/19 06:15:43;;;;;;;15.07;3.08;;;;;;;;;;5014445;28;20482;-61
2023/09/19 06:18:13;;;;;;;11.38;2.30;;;;;;;;;;5014527;28;20025;-59
2023/09/19 06:20:44;;;;;;;13.98;2.33;;;;;;;;;;5014376;28;20385;-59
2023/09/19 06:23:09;;;;;;;11.80;2.47;;;;;;;;;;5014449;28;20080;-62
2023/09/19 06:25:35;;;;;;;8.10;1.90;;;;;;;;;;5013811;28;20933;-60
2023/09/19 06:28:05;;;;;;;10.85;1.88;;;;;;;;;;5014014;28;20029;-58
2023/09/19 06:30:30;;;;;;;8.43;1.90;;;;;;;;;;5013991;28;20470;-58
2023/09/19 06:32:59;;;;;;;10.68;2.33;;;;;;;;;;5014300;28;20095;-58
2023/09/19 06:35:26;;;;;;;11.27;1.98;;;;;;;;;;5013883;28;20378;-58
2023/09/19 06:37:52;;;;;;;10.50;1.98;;;;;;;;;;5014063;28;20373;-59
2023/09/19 06:40:17;;;;;;;7.43;1.83;;;;;;;;;;5014105;28;20100;-58
2023/09/19 06:42:46;;;;;;;12.40;2.10;;;;;;;;;;5014061;28;20029;-58
2023/09/19 06:45:13;;;;;;;11.80;2.35;;;;;;;;;;5013749;28;20109;-58
2023/09/19 06:47:39;;;;;;;8.43;1.55;;;;;;;;;;5013599;28;20033;-58
2023/09/19 06:50:05;;;;;;;10.75;2.17;;;;;;;;;;5011091;28;20417;-60
2023/09/19 06:52:31;;;;;;;12.02;2.35;;;;;;;;;;5013920;28;20474;-59
2023/09/19 06:54:57;;;;;;;7.95;1.77;;;;;;;;;;5013559;28;20009;-59
2023/09/19 06:57:22;;;;;;;8.80;2.13;;;;;;;;;;5012616;28;20124;-60
2023/09/19 06:59:47;;;;;;;9.50;2.22;;;;;;;;;;5013589;28;20501;-62
2023/09/19 07:02:13;;;;;;;10.65;2.00;;;;;;;;;;5013448;28;20512;-63
2023/09/19 07:04:39;;;;;;;9.15;2.40;;;;;;;;;;5013198;28;20073;-63
2023/09/19 07:07:04;;;;;;;7.70;1.52;;;;;;;;;;5013589;28;20030;-64
2023/09/19 07:09:29;;;;;;;9.73;1.67;;;;;;;;;;5013044;28;20056;-63
2023/09/19 07:11:54;;;;;;;7.13;1.65;;;;;;;;;;5013572;28;20014;-63
2023/09/19 07:14:19;;;;;;;9.70;1.38;;;;;;;;;;5012519;28;20045;-63
2023/09/19 07:16:45;;;;;;;9.40;1.55;;;;;;;;;;5013492;28;20370;-63
2023/09/19 07:19:10;;;;;;;11.40;2.00;;;;;;;;;;5013583;28;20359;-63
2023/09/19 07:21:37;;;;;;;5.80;1.75;;;;;;;;;;5012298;28;20492;-62
2023/09/19 07:24:03;;;;;;;8.20;1.48;;;;;;;;;;5013515;28;20010;-63
2023/09/19 07:26:29;;;;;;;8.38;1.60;;;;;;;;;;5013517;28;20029;-63
2023/09/19 07:28:54;;;;;;;11.45;1.50;;;;;;;;;;5013080;28;20022;-63
2023/09/19 07:31:19;;;;;;;8.75;1.58;;;;;;;;;;5013430;28;20030;-62
2023/09/19 07:33:45;;;;;;;7.50;1.40;;;;;;;;;;5013075;28;20022;-62
2023/09/19 07:36:13;;;;;;;10.25;1.80;;;;;;;;;;5013147;28;20026;-63
2023/09/19 07:38:38;;;;;;;8.05;1.80;;;;;;;;;;5013002;28;20018;-62
2023/09/19 07:41:05;;;;;;;5.53;1.20;;;;;;;;;;5013409;28;20034;-63
2023/09/19 07:43:30;;;;;;;7.28;1.55;;;;;;;;;;5013328;28;20470;-62
2023/09/19 07:45:55;;;;;;;7.78;1.55;;;;;;;;;;5012955;28;20036;-62
2023/09/19 07:48:21;;;;;;;7.28;1.50;;;;;;;;;;5013083;28;20030;-62
2023/09/19 07:50:46;;;;;;;7.18;1.45;;;;;;;;;;5012887;28;20026;-63
2023/09/19 07:53:15;;;;;;;7.60;1.40;;;;;;;;;;5013293;28;20022;-63
2023/09/19 07:55:41;;;;;;;10.82;2.10;;;;;;;;;;5012813;28;20120;-62
2023/09/19 07:58:07;;;;;;;5.90;1.55;;;;;;;;;;5013132;28;20045;-63
2023/09/19 08:00:34;;;;;;;8.07;1.67;;;;;;;;;;5013092;28;20025;-63
2023/09/19 08:03:00;;;;;;;6.35;1.52;;;;;;;;;;5012725;28;20076;-62
2023/09/19 08:05:26;;;;;;;9.00;1.80;;;;;;;;;;5012353;28;20042;-63
2023/09/19 08:07:52;;;;;;;7.40;1.90;;;;;;;;;;5013105;28;20101;-63
2023/09/19 08:10:19;;;;;;;8.75;1.88;;;;;;;;;;5013062;28;20018;-63
2023/09/19 08:12:48;;;;;;;7.75;1.88;;;;;;;;;;5012715;28;20018;-63
2023/09/19 08:15:17;;;;;;;9.40;1.55;;;;;;;;;;5012736;28;20097;-63
2023/09/19 08:17:42;;;;;;;5.93;1.20;;;;;;;;;;5012691;28;20100;-63
2023/09/19 08:20:15;;;;;;;9.52;1.50;;;;;;;;;;5012683;28;20113;-62
2023/09/19 08:22:40;;;;;;;9.50;1.58;;;;;;;;;;5012688;28;20029;-63
2023/09/19 08:25:07;;;;;;;8.55;1.80;;;;;;;;;;5012649;28;20117;-63
2023/09/19 08:27:32;;;;;;;6.15;1.27;;;;;;;;;;5012947;28;20050;-62
2023/09/19 08:29:57;;;;;;;6.45;1.30;;;;;;;;;;5012877;28;20054;-62
2023/09/19 08:32:24;;;;;;;6.53;1.60;;;;;;;;;;5013548;28;20424;-63
2023/09/19 08:34:49;;;;;;;6.57;1.45;;;;;;;;;;5015743;28;20022;-63
2023/09/19 08:37:15;;;;;;;7.57;1.77;;;;;;;;;;5016095;28;20025;-63
2023/09/19 08:39:40;;;;;;;6.07;1.13;;;;;;;;;;5016284;28;20104;-64
2023/09/19 08:42:07;;;;;;;7.38;1.40;;;;;;;;;;5016264;28;20528;-64
2023/09/19 08:44:36;;;;;;;6.40;1.65;;;;;;;;;;5016100;28;20025;-63
2023/09/19 08:47:08;;;;;;;6.68;1.48;;;;;;;;;;5016141;28;20493;-64
2023/09/19 08:49:36;;;;;;;7.95;1.40;;;;;;;;;;5015152;28;20097;-62
2023/09/19 08:52:07;;;;;;;6.95;1.60;;;;;;;;;;5015403;28;20480;-62
2023/09/19 08:54:35;;;;;;;12.50;1.73;;;;;;;;;;5015455;28;20033;-63
2023/09/19 08:57:02;;;;;;;8.20;1.52;;;;;;;;;;5015640;28;20029;-64
2023/09/19 08:59:29;;;;;;;7.10;1.40;;;;;;;;;;5015789;28;20370;-66
2023/09/19 09:01:54;;;;;;;6.50;1.35;;;;;;;;;;5015908;28;20449;-65
2023/09/19 09:04:22;;;;;;;5.35;1.45;;;;;;;;;;5015206;28;20125;-64
2023/09/19 09:06:50;;;;;;;6.75;1.30;;;;;;;;;;5015803;28;20503;-64
2023/09/19 09:09:15;;;;;;;8.50;1.05;;;;;;;;;;5015330;28;20025;-63
2023/09/19 09:11:41;;;;;;;7.97;1.75;;;;;;;;;;5014487;28;20018;-64
2023/09/19 09:14:07;;;;;;;8.77;1.42;;;;;;;;;;5015660;28;20054;-64
2023/09/19 09:16:32;;;;;;;6.65;1.48;;;;;;;;;;5015603;28;20093;-63
2023/09/19 09:18:57;;;;;;;7.68;1.70;;;;;;;;;;5015307;28;20441;-64
2023/09/19 09:21:24;;;;;;;8.13;1.45;;;;;;;;;;5014642;28;20026;-64
2023/09/19 09:23:51;;;;;;;8.35;2.13;;;;;;;;;;5015416;28;20124;-65
2023/09/19 09:26:16;;;;;;;5.53;1.30;;;;;;;;;;5015046;28;20075;-65
2023/09/19 09:28:45;;;;;;;5.55;1.45;;;;;;;;;;5014910;28;20030;-65
2023/09/19 09:31:23;;;;;;;9.43;1.50;;;;;;;;;;5014915;28;20080;-64
2023/09/19 09:33:55;;;;;;;7.95;1.70;;;;;;;;;;5015176;28;20374;-66
2023/09/19 09:36:37;;;;;;;7.55;1.38;;;;;;;;;;5014972;28;20017;-65
2023/09/19 09:39:15;;;;;;;;;;;;;;;;;;5015254;28;20022;-66
2023/09/19 09:41:41;;;;;;;8.18;1.50;;;;;;;;;;5015193;28;19913;-64
2023/09/19 09:44:19;;;;;;;10.63;2.60;;;;;;;;;;5013887;28;20339;-66
2023/09/19 09:49:32;;;;;;;6.85;1.58;;;;;;;;;;5014901;28;20025;-65
2023/09/19 09:55:05;;;;;;;6.03;1.60;;;;;;;;;;5012239;28;20137;-66
2023/09/19 09:57:30;;;;;;;9.63;1.80;;;;;;;;;;5012365;28;20474;-64
2023/09/19 10:00:16;;;;;;;6.63;1.30;;;;;;;;;;5012297;28;20095;-65
2023/09/19 10:02:41;;;;;;;8.48;1.50;;;;;;;;;;5012256;28;20389;-67
2023/09/19 10:07:49;;;;;;;5.57;1.40;;;;;;;;;;5011518;28;20148;-64
2023/09/19 10:10:23;;;;;;;9.35;1.70;;;;;;;;;;5031935;28;20504;-65
2023/09/19 10:12:49;;;;;;;7.88;1.45;;;;;;;;;;5031866;28;20539;-66
2023/09/19 10:15:20;;;;;;;6.50;1.38;;;;;;;;;;5031857;28;20113;-66
2023/09/19 10:17:46;;;;;;;8.23;1.63;;;;;;;;;;5031798;28;20083;-64
2023/09/19 10:22:58;;;;;;;9.93;1.70;;;;;;;;;;5031767;28;20017;-66
2023/09/19 10:25:30;;;;;;;8.63;1.88;;;;;;;;;;5031747;28;20515;-64
2023/09/19 10:27:57;;;;;;;;;;;;;;;;;;5032077;28;20577;-66
2023/09/19 10:30:23;;;;;;;11.38;2.38;;;;;;;;;;5029244;28;19909;-61
2023/09/19 10:32:56;;;;;;;7.70;1.40;;;;;;;;;;5013919;28;20036;-61
2023/09/19 10:35:22;;;;;;;9.27;1.90;;;;;;;;;;5014239;28;20493;-61
2023/09/19 10:37:49;;;;;;;7.97;1.75;;;;;;;;;;5013979;28;20029;-62
2023/09/19 10:40:16;;;;;;;5.18;1.40;;;;;;;;;;5013930;28;20032;-65
2023/09/19 10:42:42;;;;;;;7.82;1.55;;;;;;;;;;5013713;28;20029;-64
2023/09/19 10:45:12;;;;;;;11.85;1.98;;;;;;;;;;5014080;28;20474;-65
2023/09/19 10:47:38;;;;;;;7.77;1.60;;;;;;;;;;5013281;28;20447;-66
2023/09/19 10:50:05;;;;;;;8.82;1.67;;;;;;;;;;5013764;28;20047;-66
2023/09/19 10:52:33;;;;;;;6.07;1.50;;;;;;;;;;5013513;28;20528;-64
2023/09/19 10:55:01;;;;;;;14.30;2.58;;;;;;;;;;5013213;28;20022;-66
2023/09/19 10:57:28;;;;;;;6.07;1.40;;;;;;;;;;5013509;28;20068;-66
2023/09/19 11:00:23;;;;;;;8.55;1.77;;;;;;;;;;5013091;28;20045;-67
2023/09/19 11:03:07;;;;;;;5.55;1.17;;;;;;;;;;5013486;28;20087;-67
2023/09/19 11:05:33;;;;;;;8.55;1.65;;;;;;;;;;5013753;28;20529;-65
2023/09/19 11:08:03;;;;;;;9.10;1.88;;;;;;;;;;5013313;28;20030;-67
2023/09/19 11:10:48;;;;;;;9.60;1.90;;;;;;;;;;5013317;28;20029;-65
2023/09/19 11:13:31;;;;;;;9.98;2.05;;;;;;;;;;5012763;28;20014;-66
2023/09/19 11:15:58;;;;;;;5.40;1.27;;;;;;;;;;5013591;28;20429;-67
2023/09/19 11:18:42;;;;;;;10.20;2.05;;;;;;;;;;5013502;28;20543;-66
2023/09/19 11:21:33;;;;;;;13.68;2.55;;;;;;;;;;5013162;28;20018;-65
2023/09/19 11:24:10;;;;;;;7.70;1.58;;;;;;;;;;4990574;28;20518;-67
2023/09/19 11:26:47;;;;;;;9.07;2.22;;;;;;;;;;4991485;28;20038;-67
2023/09/19 11:29:29;;;;;;;7.78;1.98;;;;;;;;;;4991328;28;20038;-66
2023/09/19 11:31:55;;;;;;;6.72;1.65;;;;;;;;;;4991300;28;20019;-65
2023/09/19 11:34:36;;;;;;;6.15;1.67;;;;;;;;;;4991435;28;20025;-65
2023/09/19 11:37:04;;;;;;;10.85;2.00;;;;;;;;;;4991389;28;20022;-65
2023/09/19 11:39:29;;;;;;;5.35;1.35;;;;;;;;;;4991520;28;20054;-66
2023/09/19 11:41:56;;;;;;;9.93;1.65;;;;;;;;;;4991269;28;20398;-66
2023/09/19 11:44:30;;;;;;;7.32;1.88;;;;;;;;;;4991249;28;20022;-66
2023/09/19 11:46:59;;;;;;;9.65;2.00;;;;;;;;;;4991114;28;20085;-65
2023/09/19 11:49:29;;;;;;;8.38;1.70;;;;;;;;;;4991319;28;20018;-65
2023/09/19 11:51:55;;;;;;;8.57;1.95;;;;;;;;;;4991240;28;20042;-68
2023/09/19 11:54:24;;;;;;;10.13;1.92;;;;;;;;;;4991217;28;20120;-66
2023/09/19 11:56:50;;;;;;;8.40;1.55;;;;;;;;;;4991069;28;20014;-65
2023/09/19 11:59:29;;;;;;;9.48;2.03;;;;;;;;;;4991143;28;20030;-66
2023/09/19 12:02:02;;;;;;;6.53;1.55;;;;;;;;;;5010381;28;20041;-65
2023/09/19 12:04:41;;;;;;;6.13;1.40;;;;;;;;;;5012555;28;20125;-68
2023/09/19 12:07:15;;;;;;;11.07;2.20;;;;;;;;;;5013365;28;20462;-67
2023/09/19 12:09:47;;;;;;;6.57;2.20;;;;;;;;;;5016434;28;20037;-65
2023/09/19 12:12:35;;;;;;;4.90;1.27;;;;;;;;;;5016715;28;20111;-67
2023/09/19 12:15:03;;;;;;;6.53;1.42;;;;;;;;;;5016680;28;20101;-66
2023/09/19 12:17:42;;;;;;;7.80;1.45;;;;;;;;;;5016470;28;20359;-67
2023/09/19 12:20:14;;;;;;;7.07;1.42;;;;;;;;;;5016671;28;20382;-67
2023/09/19 12:22:46;;;;;;;9.55;2.33;;;;;;;;;;5016488;28;20026;-66
2023/09/19 12:25:12;;;;;;;8.20;1.80;;;;;;;;;;5016158;28;20033;-66
2023/09/19 12:27:43;;;;;;;8.15;2.00;;;;;;;;;;5015713;28;20018;-67
2023/09/19 12:30:09;;;;;;;11.70;2.30;;;;;;;;;;5016110;28;20026;-67
2023/09/19 12:32:35;;;;;;;8.68;2.00;;;;;;;;;;5016326;28;20030;-68
2023/09/19 12:35:07;;;;;;;8.15;1.85;;;;;;;;;;5016081;28;20104;-67
2023/09/19 12:37:35;;;;;;;6.63;2.03;;;;;;;;;;5016054;28;20025;-67
2023/09/19 12:40:17;;;;;;;9.70;2.00;;;;;;;;;;5015959;28;20136;-68
2023/09/19 12:42:42;;;;;;;8.13;2.10;;;;;;;;;;5014725;28;20023;-66
2023/09/19 12:45:09;;;;;;;8.75;1.90;;;;;;;;;;5015189;28;20478;-69
2023/09/19 12:47:34;;;;;;;7.88;1.70;;;;;;;;;;5015788;28;20025;-67
2023/09/19 12:50:13;;;;;;;7.35;1.63;;;;;;;;;;5015771;28;20109;-62
2023/09/19 12:52:39;;;;;;;5.65;1.20;;;;;;;;;;5015708;28;20120;-64
2023/09/19 12:55:07;;;;;;;7.30;1.55;;;;;;;;;;5015679;28;20029;-63
2023/09/19 12:57:34;;;;;;;5.43;1.52;;;;;;;;;;5015601;28;20014;-63
2023/09/19 13:00:00;;;;;;;6.78;1.67;;;;;;;;;;5015536;28;20080;-61
2023/09/19 13:02:25;;;;;;;9.98;1.88;;;;;;;;;;5015820;28;20034;-61
2023/09/19 13:04:56;;;;;;;4.70;1.33;;;;;;;;;;5015133;28;20571;-64
2023/09/19 13:07:46;;;;;;;6.47;1.63;;;;;;;;;;5015548;28;20067;-63
2023/09/19 13:10:15;;;;;;;8.60;1.75;;;;;;;;;;5015739;28;20058;-64
2023/09/19 13:12:43;;;;;;;9.93;1.40;;;;;;;;;;5015651;28;20063;-63
2023/09/19 13:15:14;;;;;;;9.98;1.95;;;;;;;;;;5015359;28;20028;-65
2023/09/19 13:17:43;;;;;;;9.13;1.80;;;;;;;;;;5014401;28;20028;-62
2023/09/19 13:20:24;;;;;;;7.88;1.42;;;;;;;;;;5015325;28;20026;-63
2023/09/19 13:22:53;;;;;;;6.30;1.50;;;;;;;;;;5014648;28;20041;-63
2023/09/19 13:25:19;;;;;;;9.00;1.98;;;;;;;;;;5015355;28;20214;-61
2023/09/19 13:27:45;;;;;;;7.25;1.80;;;;;;;;;;5015116;28;20133;-62
2023/09/19 13:30:12;;;;;;;8.50;1.55;;;;;;;;;;5015231;28;20070;-62
2023/09/19 13:32:39;;;;;;;8.95;1.92;;;;;;;;;;5015257;28;20033;-64
2023/09/19 13:35:05;;;;;;;7.72;1.70;;;;;;;;;;5014955;28;20030;-65
2023/09/19 13:37:30;;;;;;;6.45;1.55;;;;;;;;;;5014948;28;20017;-65
2023/09/19 13:39:57;;;;;;;4.05;1.10;;;;;;;;;;5015184;28;20041;-64
2023/09/19 13:42:23;;;;;;;4.72;1.23;;;;;;;;;;5014990;28;20049;-63
2023/09/19 13:44:48;;;;;;;9.23;1.92;;;;;;;;;;5014708;28;20026;-63
2023/09/19 13:47:15;;;;;;;9.55;1.58;;;;;;;;;;5014817;28;20102;-63
2023/09/19 13:49:40;;;;;;;8.18;1.60;;;;;;;;;;5014895;28;20022;-63
2023/09/19 13:52:07;;;;;;;6.53;1.48;;;;;;;;;;5014913;28;20360;-61
2023/09/19 13:54:32;;;;;;;5.57;1.13;;;;;;;;;;5014665;28;20018;-62
2023/09/19 13:56:57;;;;;;;5.30;1.33;;;;;;;;;;5014596;28;20029;-63
2023/09/19 13:59:23;;;;;;;7.35;1.80;;;;;;;;;;5014647;28;20014;-61
2023/09/19 14:01:49;;;;;;;6.40;1.23;;;;;;;;;;5014791;28;20014;-67
2023/09/19 14:04:15;;;;;;;5.15;1.00;;;;;;;;;;5014360;28;20049;-69
2023/09/19 14:06:41;;;;;;;9.25;2.00;;;;;;;;;;5014457;28;20381;-67
2023/09/19 14:09:07;;;;;;;9.73;2.00;;;;;;;;;;5014672;28;20378;-69
2023/09/19 14:11:33;;;;;;;8.00;1.77;;;;;;;;;;5014564;28;20026;-67
2023/09/19 14:13:58;;;;;;;12.77;1.80;;;;;;;;;;5014484;28;20465;-67
2023/09/19 14:16:24;;;;;;;3.28;0.90;;;;;;;;;;5014602;28;20072;-67
2023/09/19 14:18:49;;;;;;;6.32;1.40;;;;;;;;;;5014252;28;20421;-66
2023/09/19 14:21:15;;;;;;;6.53;1.20;;;;;;;;;;5014439;28;20026;-67
2023/09/19 14:23:41;;;;;;;7.25;1.48;;;;;;;;;;5014418;28;20045;-67
2023/09/19 14:26:06;;;;;;;7.50;1.27;;;;;;;;;;5014388;28;20401;-67
2023/09/19 14:28:33;;;;;;;6.18;1.48;;;;;;;;;;5014331;28;20021;-68
2023/09/19 14:31:03;;;;;;;7.65;1.63;;;;;;;;;;5013196;28;20033;-67
2023/09/19 14:33:28;;;;;;;4.13;1.30;;;;;;;;;;5013941;28;20060;-67
2023/09/19 14:35:54;;;;;;;8.05;1.65;;;;;;;;;;5013742;28;20497;-66
2023/09/19 14:38:19;;;;;;;3.30;1.10;;;;;;;;;;5013769;28;20098;-68
2023/09/19 14:40:44;;;;;;;7.30;1.40;;;;;;;;;;5013744;28;20058;-68
2023/09/19 14:43:09;;;;;;;7.40;1.45;;;;;;;;;;5014050;28;20089;-68
2023/09/19 14:45:38;;;;;;;6.10;1.40;;;;;;;;;;5013146;28;20017;-68
2023/09/19 14:48:05;;;;;;;5.10;1.10;;;;;;;;;;5014018;28;20026;-66
2023/09/19 14:50:30;;;;;;;4.70;1.25;;;;;;;;;;5013812;28;20021;-67
2023/09/19 14:52:56;;;;;;;4.45;1.25;;;;;;;;;;5012191;28;20485;-67
2023/09/19 14:55:23;;;;;;;8.90;1.88;;;;;;;;;;5013100;28;20472;-67
2023/09/19 14:57:51;;;;;;;8.18;1.33;;;;;;;;;;5012409;28;20079;-69
2023/09/19 15:00:18;;;;;;;6.72;1.52;;;;;;;;;;5012446;28;20030;-67